sensor_id;sensor_type;location;lat;lon;timestamp;pressure;altitude;pressure_sealevel;temperature;humidity
19736;BME280;32064;49.310;8.646;2024-03-17T00:01:37;101342.94;;;13.40;64.04
19736;BME280;32064;49.310;8.646;2024-03-17T00:04:02;101345.56;;;13.40;63.46
19736;BME280;32064;49.310;8.646;2024-03-17T00:06:28;101354.44;;;13.39;64.12
19736;BME280;32064;49.310;8.646;2024-03-17T00:08:53;101360.25;;;13.31;63.99
19736;BME280;32064;49.310;8.646;2024-03-17T00:11:20;101354.41;;;13.26;63.35
19736;BME280;32064;49.310;8.646;2024-03-17T00:13:45;101348.28;;;13.25;63.87
19736;BME280;32064;49.310;8.646;2024-03-17T00:16:10;101348.34;;;13.24;64.40
19736;BME280;32064;49.310;8.646;2024-03-17T00:18:38;101348.34;;;13.24;64.21
19736;BME280;32064;49.310;8.646;2024-03-17T00:21:03;101337.13;;;13.20;64.31
19736;BME280;32064;49.310;8.646;2024-03-17T00:23:29;101341.13;;;13.13;63.58
19736;BME280;32064;49.310;8.646;2024-03-17T00:25:55;101334.16;;;13.12;63.44
19736;BME280;32064;49.310;8.646;2024-03-17T00:28:20;101330.03;;;13.08;63.53
19736;BME280;32064;49.310;8.646;2024-03-17T00:30:46;101329.34;;;13.04;64.15
19736;BME280;32064;49.310;8.646;2024-03-17T00:33:11;101326.00;;;13.02;64.31
19736;BME280;32064;49.310;8.646;2024-03-17T00:35:37;101324.81;;;13.07;63.42
19736;BME280;32064;49.310;8.646;2024-03-17T00:38:02;101322.94;;;13.09;63.62
19736;BME280;32064;49.310;8.646;2024-03-17T00:40:35;101320.19;;;13.10;63.40
19736;BME280;32064;49.310;8.646;2024-03-17T00:43:00;101317.34;;;13.13;62.79
19736;BME280;32064;49.310;8.646;2024-03-17T00:45:26;101310.38;;;13.12;63.92
19736;BME280;32064;49.310;8.646;2024-03-17T00:47:51;101305.00;;;13.14;63.30
19736;BME280;32064;49.310;8.646;2024-03-17T00:50:16;101298.00;;;13.13;63.70
19736;BME280;32064;49.310;8.646;2024-03-17T00:52:42;101295.00;;;13.04;64.62
19736;BME280;32064;49.310;8.646;2024-03-17T00:55:07;101290.13;;;12.98;64.49
19736;BME280;32064;49.310;8.646;2024-03-17T00:57:35;101290.75;;;12.89;63.45
19736;BME280;32064;49.310;8.646;2024-03-17T01:00:00;101291.78;;;12.87;63.32
19736;BME280;32064;49.310;8.646;2024-03-17T01:02:26;101285.47;;;12.89;64.92
19736;BME280;32064;49.310;8.646;2024-03-17T01:04:51;101280.75;;;12.94;63.81
19736;BME280;32064;49.310;8.646;2024-03-17T01:07:16;101283.25;;;12.96;64.04
19736;BME280;32064;49.310;8.646;2024-03-17T01:09:42;101276.38;;;12.93;63.72
19736;BME280;32064;49.310;8.646;2024-03-17T01:12:07;101271.97;;;12.94;63.14
19736;BME280;32064;49.310;8.646;2024-03-17T01:14:32;101278.03;;;12.81;62.85
19736;BME280;32064;49.310;8.646;2024-03-17T01:17:01;101279.28;;;12.76;63.52
19736;BME280;32064;49.310;8.646;2024-03-17T01:19:30;101275.91;;;12.74;64.04
19736;BME280;32064;49.310;8.646;2024-03-17T01:21:55;101274.31;;;12.71;64.54
19736;BME280;32064;49.310;8.646;2024-03-17T01:24:21;101276.28;;;12.68;64.06
19736;BME280;32064;49.310;8.646;2024-03-17T01:26:46;101275.44;;;12.67;64.01
19736;BME280;32064;49.310;8.646;2024-03-17T01:29:12;101265.00;;;12.66;63.42
19736;BME280;32064;49.310;8.646;2024-03-17T01:31:37;101260.97;;;12.60;64.52
19736;BME280;32064;49.310;8.646;2024-03-17T01:34:02;101257.38;;;12.61;63.55
19736;BME280;32064;49.310;8.646;2024-03-17T01:36:28;101263.41;;;12.63;63.99
19736;BME280;32064;49.310;8.646;2024-03-17T01:38:54;101252.38;;;12.56;63.58
19736;BME280;32064;49.310;8.646;2024-03-17T01:41:19;101245.63;;;12.52;63.49
19736;BME280;32064;49.310;8.646;2024-03-17T01:43:45;101240.44;;;12.51;63.89
19736;BME280;32064;49.310;8.646;2024-03-17T01:46:13;101240.63;;;12.48;62.49
19736;BME280;32064;49.310;8.646;2024-03-17T01:48:39;101244.88;;;12.50;63.83
19736;BME280;32064;49.310;8.646;2024-03-17T01:51:05;101239.69;;;12.49;63.92
19736;BME280;32064;49.310;8.646;2024-03-17T01:53:31;101239.91;;;12.46;62.97
19736;BME280;32064;49.310;8.646;2024-03-17T01:55:59;101240.19;;;12.41;63.56
19736;BME280;32064;49.310;8.646;2024-03-17T01:58:30;101236.06;;;12.37;63.95
19736;BME280;32064;49.310;8.646;2024-03-17T02:00:56;101225.50;;;12.23;63.92
19736;BME280;32064;49.310;8.646;2024-03-17T02:03:21;101229.88;;;12.24;63.67
19736;BME280;32064;49.310;8.646;2024-03-17T02:05:47;101228.91;;;12.25;63.19
19736;BME280;32064;49.310;8.646;2024-03-17T02:08:13;101235.59;;;12.30;63.79
19736;BME280;32064;49.310;8.646;2024-03-17T02:10:38;101234.09;;;12.26;64.07
19736;BME280;32064;49.310;8.646;2024-03-17T02:13:04;101227.88;;;12.27;63.40
19736;BME280;32064;49.310;8.646;2024-03-17T02:15:31;101226.91;;;12.28;63.59
19736;BME280;32064;49.310;8.646;2024-03-17T02:17:56;101226.00;;;12.29;63.18
19736;BME280;32064;49.310;8.646;2024-03-17T02:20:22;101223.44;;;12.28;62.56
19736;BME280;32064;49.310;8.646;2024-03-17T02:23:07;101223.56;;;12.26;62.54
19736;BME280;32064;49.310;8.646;2024-03-17T02:25:33;101220.16;;;12.24;64.25
19736;BME280;32064;49.310;8.646;2024-03-17T02:27:58;101212.63;;;12.18;63.49
19736;BME280;32064;49.310;8.646;2024-03-17T02:30:24;101213.47;;;12.19;63.64
19736;BME280;32064;49.310;8.646;2024-03-17T02:32:53;101210.09;;;12.17;63.04
19736;BME280;32064;49.310;8.646;2024-03-17T02:35:18;101211.88;;;12.16;62.79
19736;BME280;32064;49.310;8.646;2024-03-17T02:37:44;101213.56;;;12.17;64.47
19736;BME280;32064;49.310;8.646;2024-03-17T02:40:09;101210.84;;;12.19;63.39
19736;BME280;32064;49.310;8.646;2024-03-17T02:42:35;101206.53;;;12.18;63.74
19736;BME280;32064;49.310;8.646;2024-03-17T02:45:04;101197.72;;;12.17;63.21
19736;BME280;32064;49.310;8.646;2024-03-17T02:47:29;101201.91;;;12.07;63.17
19736;BME280;32064;49.310;8.646;2024-03-17T02:49:55;101196.19;;;12.00;64.09
19736;BME280;32064;49.310;8.646;2024-03-17T02:52:20;101200.16;;;11.93;63.81
19736;BME280;32064;49.310;8.646;2024-03-17T02:54:46;101197.22;;;11.83;62.93
19736;BME280;32064;49.310;8.646;2024-03-17T02:57:11;101201.16;;;11.76;63.53
19736;BME280;32064;49.310;8.646;2024-03-17T02:59:37;101188.75;;;11.78;64.66
19736;BME280;32064;49.310;8.646;2024-03-17T03:02:02;101205.13;;;11.83;64.56
19736;BME280;32064;49.310;8.646;2024-03-17T03:04:28;101208.03;;;11.79;63.06
19736;BME280;32064;49.310;8.646;2024-03-17T03:06:53;101200.53;;;11.73;64.55
19736;BME280;32064;49.310;8.646;2024-03-17T03:09:19;101204.19;;;11.70;64.39
19736;BME280;32064;49.310;8.646;2024-03-17T03:11:56;101197.69;;;11.76;64.85
19736;BME280;32064;49.310;8.646;2024-03-17T03:14:21;101205.50;;;11.77;64.07
19736;BME280;32064;49.310;8.646;2024-03-17T03:16:47;101213.13;;;11.82;64.12
19736;BME280;32064;49.310;8.646;2024-03-17T03:19:12;101208.69;;;11.82;63.43
19736;BME280;32064;49.310;8.646;2024-03-17T03:21:37;101213.81;;;11.85;65.06
19736;BME280;32064;49.310;8.646;2024-03-17T03:24:03;101215.56;;;11.85;63.46
19736;BME280;32064;49.310;8.646;2024-03-17T03:26:28;101209.47;;;11.84;62.97
19736;BME280;32064;49.310;8.646;2024-03-17T03:28:53;101216.25;;;11.88;64.25
19736;BME280;32064;49.310;8.646;2024-03-17T03:31:20;101214.50;;;11.89;64.30
19736;BME280;32064;49.310;8.646;2024-03-17T03:33:47;101207.22;;;11.93;64.48
19736;BME280;32064;49.310;8.646;2024-03-17T03:36:14;101209.84;;;11.93;64.37
19736;BME280;32064;49.310;8.646;2024-03-17T03:38:40;101210.63;;;11.95;63.79
19736;BME280;32064;49.310;8.646;2024-03-17T03:41:10;101215.50;;;12.01;64.02
19736;BME280;32064;49.310;8.646;2024-03-17T03:43:36;101213.06;;;11.98;63.40
19736;BME280;32064;49.310;8.646;2024-03-17T03:46:02;101214.66;;;12.00;62.79
19736;BME280;32064;49.310;8.646;2024-03-17T03:48:27;101202.50;;;11.98;63.87
19736;BME280;32064;49.310;8.646;2024-03-17T03:50:53;101210.78;;;11.91;63.32
19736;BME280;32064;49.310;8.646;2024-03-17T03:53:19;101206.38;;;11.92;62.59
19736;BME280;32064;49.310;8.646;2024-03-17T03:55:45;101205.44;;;11.93;62.46
19736;BME280;32064;49.310;8.646;2024-03-17T03:58:10;101201.84;;;11.94;62.56
19736;BME280;32064;49.310;8.646;2024-03-17T04:00:38;101202.50;;;11.98;63.14
19736;BME280;32064;49.310;8.646;2024-03-17T04:03:04;101200.78;;;11.97;62.61
19736;BME280;32064;49.310;8.646;2024-03-17T04:05:30;101198.81;;;11.86;63.55
19736;BME280;32064;49.310;8.646;2024-03-17T04:07:56;101189.31;;;11.83;64.07
19736;BME280;32064;49.310;8.646;2024-03-17T04:10:21;101195.16;;;11.88;62.14
19736;BME280;32064;49.310;8.646;2024-03-17T04:12:48;101202.88;;;11.91;63.05
19736;BME280;32064;49.310;8.646;2024-03-17T04:15:13;101194.31;;;11.88;62.78
19736;BME280;32064;49.310;8.646;2024-03-17T04:17:39;101189.88;;;11.88;62.43
19736;BME280;32064;49.310;8.646;2024-03-17T04:20:05;101189.88;;;11.88;62.60
19736;BME280;32064;49.310;8.646;2024-03-17T04:22:33;101188.84;;;11.91;62.69
19736;BME280;32064;49.310;8.646;2024-03-17T04:24:59;101194.13;;;11.91;62.14
19736;BME280;32064;49.310;8.646;2024-03-17T04:27:28;101187.72;;;11.95;61.46
19736;BME280;32064;49.310;8.646;2024-03-17T04:29:54;101199.41;;;11.91;60.78
19736;BME280;32064;49.310;8.646;2024-03-17T04:32:20;101207.31;;;11.91;61.59
19736;BME280;32064;49.310;8.646;2024-03-17T04:34:46;101199.69;;;11.86;61.24
19736;BME280;32064;49.310;8.646;2024-03-17T04:37:12;101194.44;;;11.86;60.61
19736;BME280;32064;49.310;8.646;2024-03-17T04:39:42;101190.06;;;11.85;61.58
19736;BME280;32064;49.310;8.646;2024-03-17T04:42:15;101199.69;;;11.72;62.12
19736;BME280;32064;49.310;8.646;2024-03-17T04:44:42;101196.66;;;11.64;60.81
19736;BME280;32064;49.310;8.646;2024-03-17T04:47:07;101194.94;;;11.63;60.55
19736;BME280;32064;49.310;8.646;2024-03-17T04:49:40;101199.13;;;11.67;61.88
19736;BME280;32064;49.310;8.646;2024-03-17T04:52:06;101197.97;;;11.71;61.68
19736;BME280;32064;49.310;8.646;2024-03-17T04:54:35;101191.84;;;11.71;60.99
19736;BME280;32064;49.310;8.646;2024-03-17T04:57:01;101197.97;;;11.71;59.88
19736;BME280;32064;49.310;8.646;2024-03-17T04:59:27;101194.50;;;11.71;60.48
19736;BME280;32064;49.310;8.646;2024-03-17T05:01:53;101193.47;;;11.73;61.00
19736;BME280;32064;49.310;8.646;2024-03-17T05:04:18;101189.88;;;11.74;61.98
19736;BME280;32064;49.310;8.646;2024-03-17T05:06:44;101194.09;;;11.77;60.49
19736;BME280;32064;49.310;8.646;2024-03-17T05:09:16;101193.34;;;11.75;61.26
19736;BME280;32064;49.310;8.646;2024-03-17T05:11:41;101205.69;;;11.74;60.61
19736;BME280;32064;49.310;8.646;2024-03-17T05:14:07;101197.22;;;11.83;61.67
19736;BME280;32064;49.310;8.646;2024-03-17T05:16:32;101199.94;;;11.82;60.40
19736;BME280;32064;49.310;8.646;2024-03-17T05:18:58;101196.75;;;11.77;60.28
19736;BME280;32064;49.310;8.646;2024-03-17T05:21:23;101202.13;;;11.75;60.04
19736;BME280;32064;49.310;8.646;2024-03-17T05:23:49;101191.19;;;11.81;60.85
19736;BME280;32064;49.310;8.646;2024-03-17T05:26:15;101187.78;;;11.79;60.25
19736;BME280;32064;49.310;8.646;2024-03-17T05:28:40;101188.28;;;11.86;59.94
19736;BME280;32064;49.310;8.646;2024-03-17T05:31:06;101191.84;;;11.85;59.45
19736;BME280;32064;49.310;8.646;2024-03-17T05:33:31;101190.34;;;11.81;59.14
19736;BME280;32064;49.310;8.646;2024-03-17T05:35:58;101189.19;;;11.85;58.93
19736;BME280;32064;49.310;8.646;2024-03-17T05:38:29;101186.56;;;11.85;58.98
19736;BME280;32064;49.310;8.646;2024-03-17T05:41:05;101184.31;;;11.79;58.82
19736;BME280;32064;49.310;8.646;2024-03-17T05:43:33;101180.00;;;11.78;60.27
19736;BME280;32064;49.310;8.646;2024-03-17T05:45:59;101173.78;;;11.79;59.53
19736;BME280;32064;49.310;8.646;2024-03-17T05:48:26;101190.25;;;11.82;60.14
19736;BME280;32064;49.310;8.646;2024-03-17T05:50:52;101182.44;;;11.81;58.77
19736;BME280;32064;49.310;8.646;2024-03-17T05:53:20;101190.34;;;11.81;60.57
19736;BME280;32064;49.310;8.646;2024-03-17T05:55:46;101193.53;;;11.72;58.95
19736;BME280;32064;49.310;8.646;2024-03-17T05:58:12;101197.50;;;11.79;60.31
19736;BME280;32064;49.310;8.646;2024-03-17T06:00:39;101197.03;;;11.72;60.68
19736;BME280;32064;49.310;8.646;2024-03-17T06:03:05;101197.88;;;11.73;60.94
19736;BME280;32064;49.310;8.646;2024-03-17T06:05:35;101195.97;;;11.75;59.90
19736;BME280;32064;49.310;8.646;2024-03-17T06:08:02;101207.22;;;11.78;59.51
19736;BME280;32064;49.310;8.646;2024-03-17T06:10:30;101207.50;;;11.88;59.92
19736;BME280;32064;49.310;8.646;2024-03-17T06:12:56;101202.78;;;11.93;60.02
19736;BME280;32064;49.310;8.646;2024-03-17T06:15:22;101203.56;;;11.95;59.31
19736;BME280;32064;49.310;8.646;2024-03-17T06:17:49;101201.28;;;12.03;59.31
19736;BME280;32064;49.310;8.646;2024-03-17T06:20:15;101195.69;;;12.08;60.07
19736;BME280;32064;49.310;8.646;2024-03-17T06:22:41;101201.31;;;12.16;58.79
19736;BME280;32064;49.310;8.646;2024-03-17T06:25:06;101194.44;;;12.13;59.07
19736;BME280;32064;49.310;8.646;2024-03-17T06:27:32;101194.78;;;12.09;60.34
19736;BME280;32064;49.310;8.646;2024-03-17T06:30:01;101194.66;;;12.10;59.67
19736;BME280;32064;49.310;8.646;2024-03-17T06:32:30;101196.50;;;12.23;59.09
19736;BME280;32064;49.310;8.646;2024-03-17T06:34:56;101188.69;;;12.21;60.23
19736;BME280;32064;49.310;8.646;2024-03-17T06:37:22;101194.53;;;12.26;58.85
19736;BME280;32064;49.310;8.646;2024-03-17T06:39:48;101197.59;;;12.33;58.98
19736;BME280;32064;49.310;8.646;2024-03-17T06:42:14;101188.44;;;12.39;59.93
19736;BME280;32064;49.310;8.646;2024-03-17T06:44:39;101189.41;;;12.38;58.81
19736;BME280;32064;49.310;8.646;2024-03-17T06:47:05;101198.25;;;12.36;59.99
19736;BME280;32064;49.310;8.646;2024-03-17T06:49:30;101185.81;;;12.39;60.33
19736;BME280;32064;49.310;8.646;2024-03-17T06:51:56;101183.28;;;12.37;58.59
19736;BME280;32064;49.310;8.646;2024-03-17T06:54:21;101188.03;;;12.45;57.95
19736;BME280;32064;49.310;8.646;2024-03-17T06:56:47;101180.47;;;12.53;59.51
19736;BME280;32064;49.310;8.646;2024-03-17T06:59:12;101184.63;;;12.57;59.37
19736;BME280;32064;49.310;8.646;2024-03-17T07:01:38;101174.28;;;12.67;58.42
19736;BME280;32064;49.310;8.646;2024-03-17T07:04:03;101179.38;;;12.70;58.63
19736;BME280;32064;49.310;8.646;2024-03-17T07:06:28;101178.44;;;12.96;60.29
19736;BME280;32064;49.310;8.646;2024-03-17T07:08:55;101176.09;;;13.32;60.31
19736;BME280;32064;49.310;8.646;2024-03-17T07:11:20;101176.16;;;13.68;60.04
19736;BME280;32064;49.310;8.646;2024-03-17T07:13:49;101173.00;;;14.13;60.88
19736;BME280;32064;49.310;8.646;2024-03-17T07:16:16;101185.47;;;14.35;60.24
19736;BME280;32064;49.310;8.646;2024-03-17T07:18:43;101184.38;;;14.50;58.83
19736;BME280;32064;49.310;8.646;2024-03-17T07:21:10;101176.38;;;14.63;58.86
19736;BME280;32064;49.310;8.646;2024-03-17T07:23:36;101174.69;;;14.62;59.07
19736;BME280;32064;49.310;8.646;2024-03-17T07:26:02;101182.38;;;14.89;58.17
19736;BME280;32064;49.310;8.646;2024-03-17T07:28:30;101189.28;;;15.14;57.26
19736;BME280;32064;49.310;8.646;2024-03-17T07:30:57;101182.66;;;15.20;57.14
19736;BME280;32064;49.310;8.646;2024-03-17T07:33:24;101174.28;;;15.26;56.57
19736;BME280;32064;49.310;8.646;2024-03-17T07:35:54;101187.75;;;15.12;56.68
19736;BME280;32064;49.310;8.646;2024-03-17T07:38:22;101181.59;;;15.34;56.90
19736;BME280;32064;49.310;8.646;2024-03-17T07:41:01;101190.53;;;15.33;55.05
19736;BME280;32064;49.310;8.646;2024-03-17T07:43:28;101176.69;;;15.40;56.81
19736;BME280;32064;49.310;8.646;2024-03-17T07:46:04;101181.38;;;15.48;56.34
19736;BME280;32064;49.310;8.646;2024-03-17T07:48:31;101170.66;;;15.27;55.66
19736;BME280;32064;49.310;8.646;2024-03-17T07:51:08;101169.81;;;15.26;55.33
19736;BME280;32064;49.310;8.646;2024-03-17T07:53:37;101171.94;;;15.10;56.44
19736;BME280;32064;49.310;8.646;2024-03-17T07:56:07;101169.53;;;15.07;55.17
19736;BME280;32064;49.310;8.646;2024-03-17T07:58:38;101161.94;;;15.14;56.11
19736;BME280;32064;49.310;8.646;2024-03-17T08:01:05;101172.91;;;14.98;55.91
19736;BME280;32064;49.310;8.646;2024-03-17T08:03:36;101177.97;;;15.12;56.66
19736;BME280;32064;49.310;8.646;2024-03-17T08:06:03;101190.53;;;15.21;56.02
19736;BME280;32064;49.310;8.646;2024-03-17T08:08:29;101192.34;;;15.21;55.84
19736;BME280;32064;49.310;8.646;2024-03-17T08:10:54;101178.91;;;15.00;56.82
19736;BME280;32064;49.310;8.646;2024-03-17T08:13:21;101194.50;;;15.27;57.56
19736;BME280;32064;49.310;8.646;2024-03-17T08:15:58;101200.63;;;15.16;56.28
19736;BME280;32064;49.310;8.646;2024-03-17T08:18:24;101197.16;;;15.27;57.15
19736;BME280;32064;49.310;8.646;2024-03-17T08:20:50;101185.09;;;15.45;56.45
19736;BME280;32064;49.310;8.646;2024-03-17T08:23:16;101193.44;;;15.41;56.81
19736;BME280;32064;49.310;8.646;2024-03-17T08:25:41;101202.47;;;15.38;56.33
19736;BME280;32064;49.310;8.646;2024-03-17T08:28:07;101195.84;;;15.44;56.74
19736;BME280;32064;49.310;8.646;2024-03-17T08:30:33;101192.72;;;15.50;55.91
19736;BME280;32064;49.310;8.646;2024-03-17T08:32:59;101182.03;;;15.85;55.91
19736;BME280;32064;49.310;8.646;2024-03-17T08:35:24;101182.94;;;16.07;56.52
19736;BME280;32064;49.310;8.646;2024-03-17T08:37:50;101188.38;;;16.16;55.57
19736;BME280;32064;49.310;8.646;2024-03-17T08:40:22;101184.38;;;16.22;55.89
19736;BME280;32064;49.310;8.646;2024-03-17T08:42:48;101187.25;;;16.19;55.94
19736;BME280;32064;49.310;8.646;2024-03-17T08:45:13;101189.28;;;16.27;55.21
19736;BME280;32064;49.310;8.646;2024-03-17T08:47:39;101184.38;;;16.22;56.10
19736;BME280;32064;49.310;8.646;2024-03-17T08:50:05;101174.47;;;16.56;55.24
19736;BME280;32064;49.310;8.646;2024-03-17T08:52:33;101174.25;;;16.80;56.31
19736;BME280;32064;49.310;8.646;2024-03-17T08:54:58;101175.13;;;16.70;54.69
19736;BME280;32064;49.310;8.646;2024-03-17T08:57:24;101168.72;;;16.72;55.47
19736;BME280;32064;49.310;8.646;2024-03-17T08:59:50;101174.34;;;16.58;55.53
19736;BME280;32064;49.310;8.646;2024-03-17T09:02:18;101176.53;;;16.53;55.59
19736;BME280;32064;49.310;8.646;2024-03-17T09:04:45;101173.59;;;16.56;55.20
19736;BME280;32064;49.310;8.646;2024-03-17T09:07:10;101176.88;;;16.59;53.72
19736;BME280;32064;49.310;8.646;2024-03-17T09:09:35;101170.16;;;16.44;54.75
19736;BME280;32064;49.310;8.646;2024-03-17T09:12:01;101168.22;;;16.46;54.39
19736;BME280;32064;49.310;8.646;2024-03-17T09:14:29;101175.63;;;16.64;54.86
19736;BME280;32064;49.310;8.646;2024-03-17T09:16:54;101160.03;;;16.70;53.75
19736;BME280;32064;49.310;8.646;2024-03-17T09:19:20;101163.06;;;16.77;53.60
19736;BME280;32064;49.310;8.646;2024-03-17T09:21:46;101152.47;;;16.87;54.66
19736;BME280;32064;49.310;8.646;2024-03-17T09:24:11;101154.19;;;16.88;54.64
19736;BME280;32064;49.310;8.646;2024-03-17T09:26:36;101160.94;;;16.59;54.89
19736;BME280;32064;49.310;8.646;2024-03-17T09:29:04;101155.16;;;17.08;55.23
19736;BME280;32064;49.310;8.646;2024-03-17T09:31:30;101149.75;;;17.19;54.54
19736;BME280;32064;49.310;8.646;2024-03-17T09:33:59;101158.88;;;17.57;53.53
19736;BME280;32064;49.310;8.646;2024-03-17T09:36:24;101159.31;;;17.62;55.17
19736;BME280;32064;49.310;8.646;2024-03-17T09:38:49;101154.56;;;17.65;54.02
19736;BME280;32064;49.310;8.646;2024-03-17T09:41:20;101161.72;;;17.74;55.37
19736;BME280;32064;49.310;8.646;2024-03-17T09:43:47;101158.19;;;18.05;54.55
19736;BME280;32064;49.310;8.646;2024-03-17T09:46:14;101153.28;;;18.00;54.74
19736;BME280;32064;49.310;8.646;2024-03-17T09:48:44;101152.75;;;18.26;54.81
19736;BME280;32064;49.310;8.646;2024-03-17T09:51:18;101147.44;;;18.06;53.14
19736;BME280;32064;49.310;8.646;2024-03-17T09:53:44;101146.56;;;18.06;54.23
19736;BME280;32064;49.310;8.646;2024-03-17T09:56:11;101146.59;;;18.15;54.32
19736;BME280;32064;49.310;8.646;2024-03-17T09:58:37;101138.16;;;18.10;54.35
19736;BME280;32064;49.310;8.646;2024-03-17T10:01:03;101146.31;;;18.18;53.90
19736;BME280;32064;49.310;8.646;2024-03-17T10:03:47;101139.03;;;18.21;52.94
19736;BME280;32064;49.310;8.646;2024-03-17T10:06:23;101137.50;;;18.86;54.24
19736;BME280;32064;49.310;8.646;2024-03-17T10:08:51;101142.69;;;19.35;52.90
19736;BME280;32064;49.310;8.646;2024-03-17T10:11:19;101142.28;;;19.67;53.13
19736;BME280;32064;49.310;8.646;2024-03-17T10:13:45;101145.47;;;19.80;52.59
19736;BME280;32064;49.310;8.646;2024-03-17T10:16:21;101146.91;;;19.65;49.94
19736;BME280;32064;49.310;8.646;2024-03-17T10:19:06;101153.56;;;19.88;51.90
19736;BME280;32064;49.310;8.646;2024-03-17T10:21:34;101157.59;;;19.92;51.45
19736;BME280;32064;49.310;8.646;2024-03-17T10:24:07;101153.69;;;19.87;51.23
19736;BME280;32064;49.310;8.646;2024-03-17T10:29:21;101160.13;;;19.66;50.53
19736;BME280;32064;49.310;8.646;2024-03-17T10:31:54;101157.69;;;19.36;51.34
19736;BME280;32064;49.310;8.646;2024-03-17T10:34:21;101158.28;;;19.39;51.17
19736;BME280;32064;49.310;8.646;2024-03-17T10:37:03;101153.13;;;19.18;51.05
19736;BME280;32064;49.310;8.646;2024-03-17T10:39:31;101146.94;;;19.18;51.27
19736;BME280;32064;49.310;8.646;2024-03-17T10:42:01;101150.22;;;19.12;50.49
19736;BME280;32064;49.310;8.646;2024-03-17T10:44:31;101156.13;;;19.05;51.62
19736;BME280;32064;49.310;8.646;2024-03-17T10:46:58;101153.13;;;19.56;51.41
19736;BME280;32064;49.310;8.646;2024-03-17T10:49:29;101153.63;;;20.24;50.72
19736;BME280;32064;49.310;8.646;2024-03-17T10:52:03;101150.94;;;20.78;49.43
19736;BME280;32064;49.310;8.646;2024-03-17T10:54:32;101140.03;;;21.23;48.73
19736;BME280;32064;49.310;8.646;2024-03-17T10:59:41;101126.66;;;22.16;48.58
19736;BME280;32064;49.310;8.646;2024-03-17T11:04:51;101131.56;;;22.37;48.06
19736;BME280;32064;49.310;8.646;2024-03-17T11:07:17;101122.00;;;22.27;47.70
19736;BME280;32064;49.310;8.646;2024-03-17T11:09:45;101124.72;;;22.51;47.41
19736;BME280;32064;49.310;8.646;2024-03-17T11:20:39;101100.72;;;22.58;47.05
19736;BME280;32064;49.310;8.646;2024-03-17T11:23:05;101091.34;;;22.46;46.65
19736;BME280;32064;49.310;8.646;2024-03-17T11:28:00;101096.50;;;22.14;44.67
19736;BME280;32064;49.310;8.646;2024-03-17T11:47:02;101086.31;;;21.59;44.24
19736;BME280;32064;49.310;8.646;2024-03-17T11:49:32;101089.19;;;21.58;45.99
19736;BME280;32064;49.310;8.646;2024-03-17T11:52:01;101082.13;;;21.57;44.47
19736;BME280;32064;49.310;8.646;2024-03-17T11:54:33;101080.00;;;21.26;45.44
19736;BME280;32064;49.310;8.646;2024-03-17T11:57:10;101079.09;;;21.09;45.14
19736;BME280;32064;49.310;8.646;2024-03-17T11:59:36;101076.19;;;21.02;45.88
19736;BME280;32064;49.310;8.646;2024-03-17T12:02:14;101074.47;;;20.93;44.61
19736;BME280;32064;49.310;8.646;2024-03-17T12:04:42;101077.41;;;20.82;45.51
19736;BME280;32064;49.310;8.646;2024-03-17T12:07:13;101077.34;;;20.74;45.65
19736;BME280;32064;49.310;8.646;2024-03-17T12:09:41;101070.09;;;20.66;45.20
19736;BME280;32064;49.310;8.646;2024-03-17T12:12:14;101072.25;;;20.62;44.85
19736;BME280;32064;49.310;8.646;2024-03-17T12:14:41;101074.94;;;20.45;45.77
19736;BME280;32064;49.310;8.646;2024-03-17T12:17:08;101082.72;;;20.38;45.48
19736;BME280;32064;49.310;8.646;2024-03-17T12:19:34;101067.47;;;20.30;45.64
19736;BME280;32064;49.310;8.646;2024-03-17T12:22:01;101062.59;;;20.26;45.75
19736;BME280;32064;49.310;8.646;2024-03-17T12:24:32;101062.44;;;20.09;45.74
19736;BME280;32064;49.310;8.646;2024-03-17T12:26:58;101065.66;;;20.13;46.34
19736;BME280;32064;49.310;8.646;2024-03-17T12:29:31;101057.50;;;19.96;46.65
19736;BME280;32064;49.310;8.646;2024-03-17T12:32:06;101055.03;;;20.03;45.66
19736;BME280;32064;49.310;8.646;2024-03-17T12:34:32;101047.19;;;20.02;46.33
19736;BME280;32064;49.310;8.646;2024-03-17T12:36:59;101049.63;;;19.95;46.53
19736;BME280;32064;49.310;8.646;2024-03-17T12:39:27;101032.53;;;20.06;46.15
19736;BME280;32064;49.310;8.646;2024-03-17T12:42:09;101035.03;;;19.89;45.78
19736;BME280;32064;49.310;8.646;2024-03-17T12:44:39;101031.41;;;19.90;46.26
19736;BME280;32064;49.310;8.646;2024-03-17T12:47:08;101032.97;;;20.01;46.32
19736;BME280;32064;49.310;8.646;2024-03-17T12:49:53;101024.13;;;20.01;45.40
19736;BME280;32064;49.310;8.646;2024-03-17T12:52:23;101025.06;;;19.91;46.07
19736;BME280;32064;49.310;8.646;2024-03-17T12:55:06;101029.03;;;19.87;45.63
19736;BME280;32064;49.310;8.646;2024-03-17T12:57:52;101030.09;;;19.94;45.30
19736;BME280;32064;49.310;8.646;2024-03-17T13:00:37;101028.84;;;20.07;45.22
19736;BME280;32064;49.310;8.646;2024-03-17T13:03:06;101026.34;;;20.05;45.50
19736;BME280;32064;49.310;8.646;2024-03-17T13:05:33;101024.44;;;19.98;46.37
19736;BME280;32064;49.310;8.646;2024-03-17T13:07:59;101022.00;;;20.04;46.38
19736;BME280;32064;49.310;8.646;2024-03-17T13:10:25;101020.56;;;20.10;45.83
19736;BME280;32064;49.310;8.646;2024-03-17T13:13:04;101014.59;;;20.16;45.74
19736;BME280;32064;49.310;8.646;2024-03-17T13:15:31;101011.91;;;20.16;45.37
19736;BME280;32064;49.310;8.646;2024-03-17T13:17:58;101015.56;;;20.33;45.00
19736;BME280;32064;49.310;8.646;2024-03-17T13:20:24;101008.56;;;20.40;46.08
19736;BME280;32064;49.310;8.646;2024-03-17T13:22:49;101013.47;;;20.27;46.49
19736;BME280;32064;49.310;8.646;2024-03-17T13:25:16;101004.53;;;20.36;45.00
19736;BME280;32064;49.310;8.646;2024-03-17T13:27:46;101002.44;;;20.22;45.26